Tiempo atmosférico en la estación meteorológica de Bilbao Aeropuerto, Bizkaia (42 m.)



Fecha
DESCASC
Temp. máxima en grados centígrados (hora)
DESCASC
Temp. mínima en grados centígrados (hora)
DESCASC
Temp. media en grados centígrados
DESCASC
Racha de viento máxima en m/sg (hora)
DESCASC
Velocidad máxima media en intervalos de 10 minutos(hora)
DESCASC
Precipitaciones diarias en mm
DESCASC
Precipitaciones de 00:00 a 06:00 en mm
DESCASC
Precipitaciones de 06:00 a 12:00 en mm
DESCASC
Precipitaciones de 12:00 a 18:00 en mm
DESCASC
Precipitaciones de 18:00 a 24:00 en mm
DESCASC
18-01-2018 13.7 (15:40) 2.4 (08:20) 8 6.67 (16:40) 4.44 (16:50) 0 0 0 0 0
17-01-2018 14.4 (00:20) 6 (23:59) 10.2 18.89 (00:30) 12.78 (00:40) 9.5 2.9 3.8 2.8 0
16-01-2018 -- (--) -- (--) -- 13.33 (00:50) 7.22 (00:50) -- 0 0 -- 0.3
15-01-2018 13.1 (14:20) 5.5 (09:40) 9.3 15.28 (22:30) 8.06 (19:10) 1.3 1.2 0 0.1 0
14-01-2018 9.9 (15:10) 5.9 (00:00) 7.9 10.83 (15:50) 6.67 (15:50) 28.1 4.1 11.1 6.5 6.4
13-01-2018 11.6 (04:10) 5.9 (00:00) 8.8 16.94 (06:40) 8.89 (06:40) 13.1 0 0 2.4 10.7
12-01-2018 12.4 (15:10) 5.3 (00:00) 8.8 9.17 (16:10) 5 (20:40) 1.8 1.2 0.6 0 0
11-01-2018 10 (19:50) 4.4 (00:00) 7.2 16.94 (18:20) 10 (18:30) 44.7 1.3 4.3 25.5 13.6
10-01-2018 14.8 (12:50) 6.9 (00:00) 10.9 15 (16:50) 9.17 (16:50) 1.1 0 0 1 0.1
09-01-2018 11.7 (14:30) 3.7 (00:00) 7.7 18.89 (15:00) 11.67 (15:00) 0 0 0 0 0
08-01-2018 13.8 (15:30) 3.6 (00:00) 8.7 7.22 (13:40) 3.89 (11:20) 0 0 0 0 0
07-01-2018 9.9 (14:30) 4.6 (00:00) 7.2 10.28 (02:40) 5.56 (02:50) 17.8 17.7 0 0.1 0
06-01-2018 8.5 (00:10) 4.5 (00:00) 6.5 6.11 (15:30) 3.61 (15:40) -- -- -- -- 8.6
05-01-2018 18 (00:00) 8.4 (00:00) 13.2 19.72 (05:30) 10.56 (06:50) -- -- -- -- --
04-01-2018 21.1 (15:10) 11.7 (06:10) 16.4 16.11 (21:20) 9.72 (22:50) -- 0 0.2 -- --
03-01-2018 18.6 (05:30) 12.3 (00:00) 15.5 8.33 (05:20) 4.44 (06:10) 0.8 0 0 0.7 0.1
02-01-2018 16.7 (16:50) 10.7 (00:00) 13.7 9.72 (10:40) 5 (10:50) 10.2 4.6 5.4 0.2 0
01-01-2018 15.9 (14:10) 7.8 (00:00) 11.8 21.67 (14:10) 12.78 (18:40) 11.8 0 0 6.7 5.1
31-12-2017 19 (13:50) 10.3 (00:00) 14.7 22.22 (12:40) 14.44 (14:30) 4.2 0 0 4.2 0
30-12-2017 21.1 (14:40) 10.3 (00:00) 15.7 15.28 (01:20) 9.44 (01:40) 0 0 0 0 0
29-12-2017 18 (13:30) 9.2 (00:00) 13.6 15.28 (11:20) 9.17 (11:30) 4.1 0.4 3.7 0 0
28-12-2017 13.4 (13:40) 6.2 (00:00) 9.8 18.89 (13:50) 12.5 (13:50) 19 9.8 5.1 2.6 1.5
27-12-2017 -- (--) -- (--) -- -- (--) -- (--) -- -- -- 4.5 5.6
26-12-2017 13.7 (22:00) 5.1 (00:00) 9.4 22.78 (21:20) 13.89 (21:20) 4.5 0 0 0 4.5
25-12-2017 16.4 (13:50) 3 (00:00) 9.7 13.89 (22:40) 8.06 (22:40) 3.2 0 0 0 3.2
24-12-2017 15.9 (14:30) 4.5 (00:00) 10.2 5.83 (05:40) 4.17 (06:20) 0 0 0 0 0
23-12-2017 12.3 (14:50) 8.2 (00:00) 10.3 5.83 (15:20) 3.06 (15:50) 0.1 0 0.1 0 0
22-12-2017 10.4 (15:20) 5.9 (00:00) 8.1 3.61 (08:20) 1.94 (10:00) 0 0 0 0 0

Gráficas

Temp. máximas Temp. mínimas Temp. medias Precipitaciones Rachas de viento máximas Velocidades máximas media en intervalos de 10 minutos

Datos horarios

Fecha y hora oficial Temperatura (ºC) Velocidad del viento (km/h) Dirección del viento Racha (km/h) Dirección de racha Precipitación (mm) Presión (hPa) Tendencia (hPa) Humedad (%)
2018-01-20 23:00:00 12.7 10 Oeste 17 Noroeste 0.2 1021.1 1.1 91
2018-01-20 22:00:00 12.1 4 Sudeste 15 Noroeste 0.1 1020.8 1.6 93
2018-01-20 21:00:00 12.4 2 Este 9 Sur 0 1020.6 2 91
2018-01-20 20:00:00 12.8 0 Calma 11 Oeste 0 1020 2.2 89
2018-01-20 19:00:00 12.7 4 Sudeste 18 Sudeste 0 1019.2 1.9 86
2018-01-20 18:00:00 12.2 11 Sudeste 17 Sur 0 1018.6 1.3 89
2018-01-20 17:00:00 12.3 11 Sudeste 15 Este 0 1017.8 0.2 89
2018-01-20 16:00:00 13.6 4 Sudeste 17 Este 0 1017.3 -0.7 79
2018-01-20 15:00:00 13.3 10 Sudoeste 18 Sudoeste 0 1017.3 -1.3 78
2018-01-20 14:00:00 12.1 9 Sudeste 15 Sur 0 1017.6 -1.2 76
2018-01-20 13:00:00 11.4 9 Este 17 Nordeste 0 1018 -1.1 77
2018-01-20 12:00:00 11.1 8 Nordeste 15 Sur 0 1018.6 -0.3 77
2018-01-20 11:00:00 9.9 5 Este 13 Sudeste 0 1018.8 0.5 84
2018-01-20 10:00:00 8.5 6 Este 9 Este 0 1019.1 0.6 92
2018-01-20 09:00:00 7.9 6 Este 9 Sudeste 0 1018.9 0.4 92
2018-01-20 08:00:00 8.4 3 Este 13 Sudeste 0 1018.3 -1.1 88
2018-01-20 07:00:00 8.9 7 Nordeste 13 Sur 0 1018.5 -1.6 85
2018-01-20 06:00:00 8.6 4 Norte 15 Este 0 1018.5 -2.5 90
2018-01-20 05:00:00 7.5 6 Sudeste 11 Sudeste 0 1019.4 -2.1 97
2018-01-20 04:00:00 7.2 6 Este 13 Este 0 1020.1 -1.7 98
2018-01-20 03:00:00 8 8 Este 11 Sudeste 0 1021 -1.4 97
2018-01-20 02:00:00 8.6 5 Este 8 Sudeste 0 1021.5 -0.7 97
2018-01-20 01:00:00 9.6 0 Calma 5 Sudeste 0 1021.8 0.3 96
2018-01-20 00:00:00 10 0 Calma 13 Noroeste 0.1 1022.4 0.9 92
2018-01-19 23:00:00 10.1 12 Noroeste 24 Oeste 0.1 1022.2 0.9 92
2018-01-19 22:00:00 10.5 9 Oeste 33 Noroeste 2.4 1021.5 0.9 91
2018-01-19 21:00:00 10.7 11 Noroeste 26 Noroeste 1.8 1021.5 1.3 89
2018-01-19 20:00:00 10.6 22 Noroeste 41 Noroeste 1.9 1021.3 1.4 90
2018-01-19 19:00:00 11.8 19 Oeste 33 Oeste 0 1020.6 1.1 73
2018-01-19 18:00:00 11.7 16 Oeste 37 Oeste 0 1020.2 0.8 76
2018-01-19 17:00:00 11.5 17 Oeste 28 Oeste 0.4 1019.9 0.5 81
2018-01-19 16:00:00 10.9 8 Oeste 18 Oeste 0.8 1019.5 0.2 87
2018-01-19 15:00:00 10.6 13 Oeste 35 Oeste 0 1019.4 0.2 87
2018-01-19 14:00:00 11.4 20 Oeste 30 Noroeste 0 1019.4 0.6 75
2018-01-19 13:00:00 11.6 10 Noroeste 22 Noroeste 0.6 1019.3 0.8 85
2018-01-19 12:00:00 11.3 11 Noroeste 22 Noroeste 2 1019.2 1.3 94
2018-01-19 11:00:00 11 7 Noroeste 13 Noroeste 1.2 1018.8 1.1 96
2018-01-19 10:00:00 10.7 6 Oeste 17 Noroeste 1.6 1018.5 0.7 96
2018-01-19 09:00:00 10.3 3 Sudeste 11 Este 0.6 1017.9 0.3 97
2018-01-19 08:00:00 10.4 3 Este 8 Este 0.9 1017.7 0.3 96
2018-01-19 07:00:00 10.5 5 Oeste 18 Noroeste 0.7 1017.8 0 95
2018-01-19 06:00:00 10.3 8 Oeste 17 Oeste 2.2 1017.6 -0.1 96
2018-01-19 05:00:00 9.6 8 Este 11 Este 0 1017.4 -0.7 96
2018-01-19 04:00:00 9.7 4 Este 8 Sudeste 0.1 1017.8 -0.9 95
2018-01-19 03:00:00 9.7 5 Este 13 Este 0 1017.7 -1 93
2018-01-19 02:00:00 9.9 10 Este 13 Sudeste 0 1018.1 -0.7 91
2018-01-19 01:00:00 10.1 9 Este 11 Este 0 1018.7 -0.4 88
2018-01-19 00:00:00 10.2 7 Este 11 Este 0 1018.7 -0.3 88
2018-01-18 23:00:00 10.8 4 Este 9 Nordeste 0 1018.8 -0.2 83
2018-01-18 22:00:00 10.9 0 Calma 9 Oeste 0 1019.1 0.3 81
2018-01-18 21:00:00 11.5 4 Noroeste 17 Oeste 0 1019 0.4 74
2018-01-18 20:00:00 11.8 10 Oeste 22 Oeste 0 1019 0.5 71
2018-01-18 19:00:00 10.3 9 Oeste 21 Norte 0 1018.8 0.4 79
2018-01-18 18:00:00 11.6 15 Noroeste 24 Norte 0 1018.6 0 76
2018-01-18 17:00:00 12.2 12 Noroeste 24 Noroeste 0 1018.5 -0.5 75
2018-01-18 16:00:00 13 14 Noroeste 21 Noroeste 0 1018.4 -1.7 68
2018-01-18 15:00:00 13.3 6 Noroeste 15 Norte 0 1018.6 -2.4 66
2018-01-18 14:00:00 12.9 5 Oeste 15 Sudoeste 0 1019 -2.3 65
2018-01-18 13:00:00 10.9 2 Nordeste 9 Nordeste 0 1020.1 -1.1 71
2018-01-18 12:00:00 8.6 5 Este 13 Sudeste 0 1021 -0.2 82
2018-01-18 11:00:00 6.9 6 Sudeste 13 Este 0 1021.3 0.3 87
2018-01-18 10:00:00 4.5 9 Este 13 Sudeste 0 1021.2 0.4 94
2018-01-18 09:00:00 2.7 10 Este 13 Este 0 1021.2 0.5 96
2018-01-18 08:00:00 3 8 Este 15 Este 0 1021 -0.3 97
2018-01-18 07:00:00 2.7 8 Este 11 Este 0 1020.8 -1 97
2018-01-18 06:00:00 3.5 9 Este 11 Este 0 1020.7 -1.8 97
2018-01-18 05:00:00 3.8 6 Este 9 Sudeste 0 1021.3 -1.8 97
2018-01-18 04:00:00 3.9 6 Este 11 Este 0 1021.8 -1.8 98
2018-01-18 03:00:00 4.6 4 Este -- -- 0 1022.5 -1.1 98
2018-01-18 02:00:00 4.8 9 Este 13 Este 0 1023.1 -0.9 97
2018-01-18 01:00:00 5.2 8 Este 9 Este 0 1023.6 -0.7 96
2018-01-18 00:00:00 6.1 4 Este 13 Este 0 1023.6 -0.9 96
2018-01-17 23:00:00 7.2 6 Este 13 Este 0 1024 -0.4 95
2018-01-17 22:00:00 7.9 8 Este 13 Nordeste 0 1024.3 0 96
2018-01-17 21:00:00 8.7 7 Este 13 Nordeste 0 1024.5 0.3 96
2018-01-17 20:00:00 9.1 3 Este 13 Este 0 1024.4 0.1 94
2018-01-17 19:00:00 9.5 7 Este 13 Este 0 1024.3 0.2 92
2018-01-17 18:00:00 9.7 3 Sur 13 Noroeste 0 1024.2 0.1 90
2018-01-17 17:00:00 9.6 11 Noroeste 50 Noroeste 0 1024.3 -0.3 90
2018-01-17 16:00:00 11.1 33 Noroeste 50 Noroeste 0 1024.1 -1.1 78
2018-01-17 15:00:00 10.8 21 Noroeste 37 Noroeste 0.8 1024.1 -1.2 85
2018-01-17 14:00:00 11.2 12 Oeste 28 Oeste 0.1 1024.6 -0.3 79
2018-01-17 13:00:00 10.1 16 Noroeste 30 Noroeste 1.9 1025.2 0.7 88
2018-01-17 12:00:00 11.3 11 Norte 22 Nordeste 0.6 1025.3 1.8 79
2018-01-17 11:00:00 10.8 9 Oeste 28 Oeste 0 1024.9 2.3 80
2018-01-17 10:00:00 9.8 18 Oeste 46 Oeste 1.5 1024.5 2.4 87
2018-01-17 09:00:00 10.4 22 Noroeste 46 Noroeste 1.5 1023.5 1.4 81
2018-01-17 08:00:00 10.8 37 Noroeste 59 Noroeste 0.1 1022.6 1.3 78
2018-01-17 07:00:00 11.1 13 Oeste 54 Noroeste 0.1 1022.1 1.2 75
2018-01-17 06:00:00 11 39 Noroeste 63 Noroeste 0.6 1022.1 1.6 79
2018-01-17 05:00:00 11.6 33 Noroeste 55 Noroeste 0.5 1021.3 1.6 78
2018-01-17 04:00:00 11.8 26 Noroeste 54 Noroeste 0.7 1020.9 1.4 81
2018-01-17 03:00:00 12.6 30 Noroeste 59 Noroeste 0.3 1020.5 1.7 82
2018-01-17 02:00:00 13.1 34 Noroeste 54 Noroeste 0 1019.7 1.1 78
2018-01-17 01:00:00 12.5 29 Noroeste 68 Noroeste 0.8 1019.5 1.6 87
2018-01-17 00:00:00 13.9 22 Oeste 39 Oeste 0.3 1018.8 0.9 81
2018-01-16 23:00:00 13.9 20 Noroeste 39 Noroeste 0 1018.6 0.7 86
2018-01-16 22:00:00 13.9 5 Noroeste 15 Oeste 0 1017.9 0.1 74
2018-01-16 21:00:00 15.1 10 Oeste 15 Oeste 0 1017.9 0.3 66
2018-01-16 20:00:00 15.1 8 Oeste 15 Oeste 0 1017.9 0.3 64
2018-01-16 19:00:00 14.9 6 Oeste 17 Noroeste 0 1017.8 0 74
2018-01-16 18:00:00 14.7 13 Noroeste 22 Noroeste 0 1017.6 -0.7 75
2018-01-16 17:00:00 15.4 16 Noroeste 26 Noroeste 0 1017.6 -1.4 71
2018-01-16 16:00:00 15.8 15 Oeste 32 Noroeste 0 1017.8 -1.9 67
2018-01-16 15:00:00 15.5 16 Noroeste 24 Noroeste -- 1018.3 -2.2 69
2018-01-16 14:00:00 15.3 3 Nordeste 13 Sudeste -- 1019 -1.4 79
2018-01-16 13:00:00 14.1 5 Sudeste 15 Este 0.2 1019.7 -0.5 63
2018-01-16 12:00:00 13.3 6 Sur 24 Sudoeste 0 1020.5 0.8 61
2018-01-16 11:00:00 13 14 Sudoeste 26 Oeste 0 1020.4 1.4 63
2018-01-16 10:00:00 12.8 16 Sudoeste 35 Sudoeste 0 1020.2 1.8 63
2018-01-16 09:00:00 12.7 15 Sudoeste 41 Sudoeste 0 1019.7 1.8 63
2018-01-16 08:00:00 12.7 22 Sudoeste 37 Sudoeste 0 1019 1.4 63
2018-01-16 07:00:00 12.7 17 Sudoeste 39 Sudoeste 0 1018.4 0.6 62
2018-01-16 06:00:00 12.6 25 Sudoeste 42 Oeste 0 1017.9 0.4 61
2018-01-16 05:00:00 12.7 18 Sudoeste 45 Sudoeste 0 1017.6 -0.3 60
2018-01-16 04:00:00 12.9 21 Sudoeste 39 Sudoeste 0 1017.8 -0.1 59
2018-01-16 03:00:00 12.8 21 Sudoeste 41 Sudoeste 0 1017.5 -0.8 58
2018-01-16 02:00:00 12.6 26 Sudoeste 45 Sudoeste 0 1017.9 -0.2 56
2018-01-16 01:00:00 12.6 25 Sudoeste 48 Sudoeste 0 1017.9 -0.5 55
2018-01-16 00:00:00 12.3 24 Sudoeste 50 Sudoeste 0 1018.3 0.2 54
2018-01-15 23:00:00 11.8 16 Sudoeste 55 Sudoeste 0 1018.1 0.4 57
2018-01-15 22:00:00 10.5 26 Sudoeste 48 Sudoeste 0 1018.4 0.7 67
2018-01-15 21:00:00 11.3 18 Sudoeste 46 Sudoeste 0 1018.1 0.9 59
2018-01-15 20:00:00 11.3 22 Sudoeste 50 Sudoeste 0 1017.7 0.6 56
2018-01-15 19:00:00 11.4 23 Sudoeste 42 Sudoeste 0 1017.7 0.7 50
2018-01-15 18:00:00 11.5 21 Sudoeste 41 Sudoeste 0 1017.2 -0.4 48
2018-01-15 17:00:00 11.7 17 Sudoeste 33 Sudoeste 0 1017.1 -0.8 46
2018-01-15 16:00:00 12.1 22 Sudoeste 37 Sudoeste 0 1017 -1.8 50
2018-01-15 15:00:00 12.2 6 Sudoeste 22 Oeste 0.1 1017.6 -2.2 50
2018-01-15 14:00:00 12.4 3 Oeste 24 Sur 0 1017.9 -2.8 56
2018-01-15 13:00:00 11.5 7 Sudoeste 22 Oeste 0 1018.8 -1.8 60
2018-01-15 12:00:00 10 5 Noroeste 15 Sudeste 0 1019.8 -0.3 72
2018-01-15 11:00:00 9 0 Calma 13 Este 0 1020.7 0.9 87
2018-01-15 10:00:00 7.3 5 Sudeste 11 Sudeste 0 1020.6 1.1 99
2018-01-15 09:00:00 5.7 0 Calma 21 Este 0 1020.1 0.9 100
2018-01-15 08:00:00 5.8 2 Sudeste 13 Este 0 1019.8 0.3 100
2018-01-15 07:00:00 6.4 3 Este 13 Sudeste 0 1019.5 0 100
2018-01-15 06:00:00 6.7 8 Sudeste 13 Este 0 1019.2 -0.2 100
2018-01-15 05:00:00 6.7 5 Este 8 Este 0 1019.5 0.1 100
2018-01-15 04:00:00 7 4 Este 11 Sur 0.2 1019.5 0 99
2018-01-15 03:00:00 7.2 0 Calma 5 Este 0 1019.4 0 99
2018-01-15 02:00:00 7.3 4 Este -- -- -- 1019.4 0.6 99
2018-01-15 01:00:00 7.3 6 Sudeste 11 Este 1 1019.5 1.1 99
2018-01-15 00:00:00 7.3 4 Este 11 Sur 1.5 1019.4 1.4 98
2018-01-14 23:00:00 7.3 0 Calma 11 Este 0 1018.8 2 98
2018-01-14 22:00:00 7.6 0 Calma 9 Sudoeste 1.5 1018.4 2.5 97
2018-01-14 21:00:00 7.9 9 Norte 28 Nordeste 2.1 1018 2.7 94
2018-01-14 20:00:00 8.4 8 Oeste 24 Sudoeste 1.3 1016.8 2.1 89
2018-01-14 19:00:00 8.6 0 Calma 11 Oeste 0 1015.9 1.6 87
2018-01-14 18:00:00 8.7 6 Oeste 18 Oeste 0 1015.3 1.4 86
2018-01-14 17:00:00 8.1 0 Calma 21 Oeste 1.6 1014.7 0.9 96
2018-01-14 16:00:00 8.3 19 Noroeste 39 Noroeste 1.4 1014.3 0.4 86
2018-01-14 15:00:00 9.8 9 Oeste 26 Oeste 0 1013.9 -0.9 78
2018-01-14 14:00:00 9.1 5 Oeste 15 Oeste 0.1 1013.8 -0.7 89
2018-01-14 13:00:00 8.1 4 Sur 13 Sudoeste 3.4 1013.9 0 96
2018-01-14 12:00:00 7.4 2 Norte 8 Sudeste 2.3 1014.8 1.9 98
2018-01-14 11:00:00 6.7 3 Este 17 Sudeste 5.9 1014.5 2.1 99
2018-01-14 10:00:00 6.8 4 Este 11 Este 1.2 1013.9 1.9 97
2018-01-14 09:00:00 7.2 0 Calma 8 Norte 0.1 1012.9 0.8 91
2018-01-14 08:00:00 7.1 3 Este 8 Norte 0.1 1012.4 0.7 96
2018-01-14 07:00:00 7.5 0 Calma 15 Oeste 1.5 1012 0.3 96
2018-01-14 06:00:00 6.6 2 Este 13 Nordeste 1.4 1012.1 0.4 98
2018-01-14 05:00:00 6.6 3 Este 13 Este 0.5 1011.7 0.1 97
2018-01-14 04:00:00 6.4 9 Sudeste 18 Sur 0.3 1011.7 -0.6 98
2018-01-14 03:00:00 6.4 4 Este 15 Este 0.1 1011.7 -0.7 96
2018-01-14 02:00:00 6.3 8 Este -- -- -- 1011.6 -0.7 96
2018-01-14 01:00:00 6.1 5 Nordeste 13 Sur 1.7 1012.3 0.5 96
2018-01-14 00:00:00 5.9 6 Este 17 Sudeste 1.8 1012.4 0.6 96
2018-01-13 23:00:00 6.2 10 Nordeste 17 Nordeste 1.7 1012.3 0.7 92
2018-01-13 22:00:00 6.1 3 Este 15 Este 1.5 1011.8 0.3 92
2018-01-13 21:00:00 6.3 4 Sudeste 18 Este 1.8 1011.8 0.8 90
2018-01-13 20:00:00 6.6 2 Sudeste 22 Sur 1.6 1011.6 1.2 90
2018-01-13 19:00:00 7.1 2 Sur 15 Sur 2.3 1011.5 1.5 90
2018-01-13 18:00:00 7.4 4 Noroeste 13 Oeste 1.3 1011 0.8 88
2018-01-13 17:00:00 8.6 7 Sudoeste 21 Oeste 0.9 1010.4 -0.3 75
2018-01-13 16:00:00 8.9 4 Sudoeste 18 Sur 0.1 1010 -0.8 76
2018-01-13 15:00:00 9 0 Calma 24 Sudoeste 0.1 1010.2 -0.8 72
2018-01-13 14:00:00 10.2 9 Sur 35 Sur 0 1010.7 0 59
2018-01-13 13:00:00 10.7 19 Sur 48 Sur 0 1010.8 0.2 53
2018-01-13 12:00:00 10.7 24 Sur 52 Sur 0 1011 0.9 52
2018-01-13 11:00:00 10.3 22 Sur 59 Sur 0 1010.7 0.8 54
2018-01-13 10:00:00 10.7 8 Sur 33 Sudeste 0 1010.6 0.7 51
2018-01-13 09:00:00 10.6 9 Sur 50 Sudoeste 0 1010.1 0 51
2018-01-13 08:00:00 10.6 30 Sur 52 Sur 0 1009.9 -0.6 51
2018-01-13 07:00:00 10.8 23 Sur 61 Sur 0 1009.9 -1.4 49
2018-01-13 06:00:00 11.1 31 Sur 58 Sudoeste 0 1010.1 -1.5 49
2018-01-13 05:00:00 11.5 30 Sur 50 Sur 0 1010.5 -2 46
2018-01-13 04:00:00 11.2 18 Sur 42 Sur 0 1011.3 -2.6 44
2018-01-13 03:00:00 10.2 19 Sur 42 Sur 0 1011.6 -3.6 49
2018-01-13 02:00:00 7.9 20 Sudeste -- -- -- 1012.5 -3.3 66
2018-01-13 01:00:00 7.4 16 Sudeste 28 Este 0 1013.9 -2.6 71
2018-01-13 00:00:00 8.2 10 Sudeste 18 Sudeste 0 1015.2 -1.5 68
2018-01-12 23:00:00 8.1 0 Calma 15 Sur 0 1015.8 -1.3 73
2018-01-12 22:00:00 8.2 3 Sur 22 Sudeste 0 1016.5 -1 78
2018-01-12 21:00:00 8.7 14 Sudeste 24 Este 0 1016.7 -0.9 82
2018-01-12 20:00:00 8.4 14 Sudeste 21 Este 0 1017.1 -0.7 90
2018-01-12 19:00:00 9.3 12 Este 26 Este 0 1017.5 -0.7 88
2018-01-12 18:00:00 9.8 10 Sudeste 18 Sudeste 0 1017.6 -1.2 85
2018-01-12 17:00:00 11.1 10 Este 33 Sudeste 0 1017.8 -1.9 82
2018-01-12 16:00:00 11.6 13 Sudeste 21 Sudeste 0 1018.2 -2.7 75
2018-01-12 15:00:00 12.2 12 Este 18 Este 0 1018.8 -3 79
2018-01-12 14:00:00 11.8 9 Este 15 Este 0 1019.7 -2.1 83
2018-01-12 13:00:00 11.1 6 Sudeste 13 Sudeste 0 1020.9 -0.6 95
2018-01-12 12:00:00 9.2 5 Sudeste 15 Este 0 1021.8 0.4 100
2018-01-12 11:00:00 8 4 Sudeste 13 Este 0.1 1021.8 0.5 100
2018-01-12 10:00:00 7.6 6 Este 13 Sudeste 0.2 1021.5 0.6 100
2018-01-12 09:00:00 7.3 7 Este 13 Este 0.1 1021.4 0.5 100
2018-01-12 08:00:00 7.1 5 Sur 15 Nordeste 0.2 1021.3 0.2 100
2018-01-12 07:00:00 6.3 7 Este 17 Este 0 1020.9 -0.5 100
2018-01-12 06:00:00 6.2 3 Este 8 Este 0.1 1020.9 -0.6 100
2018-01-12 05:00:00 5.9 5 Sudeste 11 Este 0.2 1021.1 -0.2 100
2018-01-12 04:00:00 5.3 7 Este 13 Este 0.3 1021.4 0.5 100
2018-01-12 03:00:00 5.7 0 Calma 8 Este 0.5 1021.5 0.7 100
2018-01-12 02:00:00 5.6 5 Sudeste -- -- -- 1021.3 1 100
2018-01-12 01:00:00 5.4 6 Este 15 Este 0 1020.9 1 100
2018-01-12 00:00:00 5.4 8 Sudeste 17 Este 0 1020.8 1.4 100
2018-01-11 23:00:00 5.3 9 Sudeste 18 Sudeste 1.6 1020.3 1.8 100
2018-01-11 22:00:00 5.4 11 Este 21 Este 2.8 1019.9 3.5 100
2018-01-11 21:00:00 5.5 15 Sudeste 24 Sudeste 3 1019.4 4 98
2018-01-11 20:00:00 9.8 14 Noroeste 46 Noroeste 5.2 1018.5 3.3 95
2018-01-11 19:00:00 9.7 24 Noroeste 61 Oeste 1 1016.4 0.2 88
2018-01-11 18:00:00 6.7 19 Oeste 46 Noroeste 0.1 1015.4 -1.1 97
2018-01-11 17:00:00 4.5 26 Este 35 Este 6 1015.2 -1.4 96
2018-01-11 16:00:00 5 13 Sur 24 Sur 5.6 1016.2 -0.4 98
2018-01-11 15:00:00 5.8 9 Este 17 Este 5.8 1016.5 0.1 96
2018-01-11 14:00:00 6.1 4 Sudoeste 21 Oeste 4.5 1016.6 0.9 92
2018-01-11 13:00:00 6.1 12 Oeste 24 Oeste 3.5 1016.6 1.5 89
2018-01-11 12:00:00 6.9 20 Oeste 41 Oeste 1.7 1016.4 1.8 85
2018-01-11 11:00:00 7.5 17 Oeste 26 Oeste 1.1 1015.7 2 80
2018-01-11 10:00:00 7 11 Oeste 41 Oeste 0.2 1015.1 1.8 80
2018-01-11 09:00:00 7.5 13 Oeste 28 Oeste 1 1014.6 1.8 78
2018-01-11 08:00:00 7.2 12 Oeste 46 Oeste 0.3 1013.7 1 79
2018-01-11 07:00:00 6.9 10 Oeste 24 Oeste 0 1013.3 0.4 79
2018-01-11 06:00:00 6.8 12 Oeste 37 Oeste 0.8 1012.8 0.9 81
2018-01-11 05:00:00 6.6 8 Oeste 30 Oeste 0.2 1012.7 1.1 84
2018-01-11 04:00:00 7.4 11 Noroeste 24 Sudoeste 0.3 1012.9 0.8 75
2018-01-11 03:00:00 7.2 6 Este 28 Oeste 0 1011.9 -0.5 68
2018-01-11 02:00:00 8 3 Oeste -- -- -- 1011.6 -0.7 63
2018-01-11 01:00:00 8.3 3 Oeste 18 Oeste 0 1012.1 0.5 62
2018-01-11 00:00:00 9.2 4 Oeste 28 Oeste 0 1012.4 1 57
2018-01-10 23:00:00 9.9 13 Oeste 32 Oeste 0 1012.3 1.4 56
2018-01-10 22:00:00 10.2 21 Oeste 48 Oeste 0 1011.6 1.7 53
2018-01-10 21:00:00 9.7 14 Oeste 33 Sudoeste 0 1011.4 2.5 59
2018-01-10 20:00:00 9.5 13 Oeste 48 Noroeste 0.1 1010.9 2.7 70
2018-01-10 19:00:00 10.1 11 Oeste 30 Noroeste 0 1009.9 3.8 74
2018-01-10 18:00:00 10.4 20 Oeste 42 Oeste 0.7 1008.9 3.3 73
2018-01-10 17:00:00 10.7 18 Oeste 54 Noroeste 0.3 1008.2 1.1 80
2018-01-10 16:00:00 14.3 23 Oeste 48 Sudoeste 0 1006.1 -1.6 50
2018-01-10 15:00:00 13.6 20 Sudoeste 42 Oeste 0 1005.6 -2.9 51
2018-01-10 14:00:00 13.5 13 Sudoeste 52 Sur 0 1007.1 -2.2 47
2018-01-10 13:00:00 14.4 18 Sudoeste 42 Oeste 0 1007.7 -2.3 43
2018-01-10 12:00:00 13.5 10 Sur 26 Sur 0 1008.5 -1.8 55
2018-01-10 11:00:00 10.5 13 Sudeste 26 Sur 0 1009.3 -1.1 68
2018-01-10 10:00:00 8.8 11 Este 18 Este 0 1010 -0.2 72
2018-01-10 09:00:00 8.1 11 Este 18 Este 0 1010.3 0.6 72
2018-01-10 08:00:00 7.9 9 Este 17 Este 0 1010.4 0.6 73
2018-01-10 07:00:00 7.1 10 Sudeste 17 Sudeste 0 1010.2 0 76
2018-01-10 06:00:00 8.2 8 Sudeste 24 Sur 0 1009.7 -0.5 70
2018-01-10 05:00:00 9.7 14 Sur 26 Sur 0 1009.8 0.1 65
2018-01-10 04:00:00 9 4 Este 22 Sudoeste 0 1010.2 0.8 68
2018-01-10 03:00:00 9.2 3 Sur 13 Sur 0 1010.2 0.9 65
2018-01-10 02:00:00 9.1 5 Sudeste -- -- -- 1009.7 0.5 66
2018-01-10 01:00:00 9.5 17 Sudeste 28 Este 0 1009.4 0.4 64
2018-01-10 00:00:00 10.1 10 Sur 37 Sudoeste 0 1009.3 0.5 60
2018-01-09 23:00:00 10 12 Sur 37 Sur 0 1009.2 1 61
2018-01-09 22:00:00 10.8 15 Sur 50 Sudoeste 0 1009 1.4 57
2018-01-09 21:00:00 10.5 18 Sur 39 Sur 0 1008.8 1.6 57
2018-01-09 20:00:00 9.8 5 Sudeste 26 Sur 0 1008.2 1.5 63
2018-01-09 19:00:00 9.2 9 Sur 30 Sur 0 1007.6 0.9 65
2018-01-09 18:00:00 8.3 17 Sur 33 Sur 0 1007.2 1.1 73
2018-01-09 17:00:00 8.7 10 Sur 28 Oeste 0 1006.7 0.3 72
2018-01-09 16:00:00 10.3 13 Sudeste 50 Sur 0 1006.7 -0.2 56
2018-01-09 15:00:00 11.5 42 Sur 68 Sur 0 1006.1 -1.3 45
2018-01-09 14:00:00 11.3 35 Sudoeste 61 Sudoeste 0 1006.4 -1.3 44
2018-01-09 13:00:00 11.3 19 Sur 54 Oeste 0 1006.9 -0.6 42
2018-01-09 12:00:00 11.3 14 Sur 32 Sudeste 0 1007.4 0.4 43
2018-01-09 11:00:00 10.5 16 Sur 28 Sudeste 0 1007.7 0.3 47
2018-01-09 10:00:00 9.1 15 Sur 33 Sur 0 1007.5 0 49
2018-01-09 09:00:00 8.4 14 Sur 35 Sudoeste 0 1007 -0.5 51
2018-01-09 08:00:00 7.2 12 Sur 24 Sudoeste 0 1007.4 -0.2 61
2018-01-09 07:00:00 5.9 11 Este 21 Este 0 1007.5 -0.1 70
2018-01-09 06:00:00 6.7 8 Este 18 Este 0 1007.5 -0.5 66
2018-01-09 05:00:00 6.4 10 Este 22 Sudeste 0 1007.6 -0.2 69
2018-01-09 04:00:00 6.9 8 Este 18 Este 0 1007.6 -0.7 66
2018-01-09 03:00:00 5.2 0 Calma 11 Sudeste 0 1008 -0.3 74
2018-01-09 02:00:00 4.5 5 Sudeste -- -- -- 1007.8 -0.6 81
2018-01-09 01:00:00 4.7 5 Sudeste 8 Sudeste 0 1008.3 0.2 81
2018-01-09 00:00:00 3.8 5 Este 13 Este 0 1008.3 0.1 87
2018-01-08 23:00:00 4.5 7 Este 13 Este 0 1008.4 0.5 85
2018-01-08 22:00:00 5.5 5 Este 13 Sudeste 0 1008.1 0.4 81
2018-01-08 21:00:00 5.9 8 Sudeste 15 Sudeste 0 1008.2 1.1 82
2018-01-08 20:00:00 6.7 4 Este 11 Sudeste 0 1007.9 1.2 81
2018-01-08 19:00:00 7.4 10 Sudeste 15 Sudeste 0 1007.7 1 81
2018-01-08 18:00:00 9.4 6 Sudeste 15 Sudeste 0 1007.1 0.6 68
2018-01-08 17:00:00 12.7 3 Sur 15 Sur 0 1006.7 -0.3 49
2018-01-08 16:00:00 13.4 6 Sur 17 Sur 0 1006.7 -0.3 48
2018-01-08 15:00:00 13 5 Sur 13 Sur 0 1006.5 -0.8 51
2018-01-08 14:00:00 11.2 10 Este 26 Este 0 1007 -0.3 63
2018-01-08 13:00:00 11.6 8 Sudeste 15 Este 0 1007 0 60
2018-01-08 12:00:00 10.5 8 Sudeste 22 Este 0 1007.3 0.7 65
2018-01-08 11:00:00 7.3 11 Sudeste 17 Este 0 1007.3 0.9 82
2018-01-08 10:00:00 4.9 4 Sudeste 8 Sur 0 1007 1 90
2018-01-08 09:00:00 4.5 0 Calma 13 Sudeste 0 1006.6 1.1 91
2018-01-08 08:00:00 4.7 3 Sudeste 13 Este 0 1006.4 1.2 91
2018-01-08 07:00:00 4.6 5 Sudeste 13 Sudeste 0 1006 1 95
2018-01-08 06:00:00 4.8 4 Sudeste 9 Sudeste 0 1005.5 1.1 94
2018-01-08 05:00:00 4.7 5 Sudeste 13 Sudeste 0 1005.2 0.9 97
2018-01-08 04:00:00 4.7 6 Sudeste 17 Este 0 1005 0.6 98
2018-01-08 03:00:00 4.7 13 Sudeste 17 Sudeste 0 1004.4 -0.1 98
2018-01-08 02:00:00 4.8 2 Sur -- -- -- 1004.3 -0.4 100
2018-01-08 01:00:00 4.6 3 Sudeste 13 Este 0 1004.4 0.5 100
2018-01-08 00:00:00 4.7 5 Este 13 Sudeste 0 1004.5 0.8 100
2018-01-07 23:00:00 5.3 6 Este 15 Sudeste 0 1004.7 1.9 100
2018-01-07 22:00:00 5.7 3 Sudeste 21 Este 0 1003.9 2 100
2018-01-07 21:00:00 6.3 5 Este 21 Este 0 1003.7 2.3 100
2018-01-07 20:00:00 6.5 3 Sudeste 22 Nordeste 0 1002.8 2.3 98
2018-01-07 19:00:00 7.7 6 Este 13 Este 0 1001.9 2.3 96
2018-01-07 18:00:00 8.6 5 Este 17 Este 0 1001.4 2.1 95
2018-01-07 17:00:00 9.4 6 Este 15 Este 0 1000.5 2 94
2018-01-07 16:00:00 9.9 3 Este 13 Este 0 999.6 1.2 93
2018-01-07 15:00:00 9.8 7 Sudeste 13 Sudeste 0.1 999.3 1.1 91
2018-01-07 14:00:00 9.6 8 Sudeste 17 Sudeste 0 998.5 0.9 92
2018-01-07 13:00:00 9.1 9 Sudeste 15 Sudeste 0 998.4 1.6 95
2018-01-07 12:00:00 8.8 6 Este 15 Sudeste 0 998.2 1.9 97
2018-01-07 11:00:00 8.2 6 Este 13 Este 0 997.6 1.7 98
2018-01-07 10:00:00 7.4 9 Sudeste 15 Sudeste 0 996.8 1.4 99
2018-01-07 09:00:00 7.3 6 Sudeste 17 Este 0 996.3 0.5 100
2018-01-07 08:00:00 7.5 8 Este 15 Sudeste 0 995.9 0 100
2018-01-07 07:00:00 7.9 8 Este 13 Oeste 0 995.4 -1.3 99
2018-01-07 06:00:00 8.3 0 Calma 26 Noroeste 1.7 995.8 -2.1 98
2018-01-07 05:00:00 8.1 17 Noroeste 32 Noroeste 4.7 995.9 -2.2 98
2018-01-07 04:00:00 7.4 17 Noroeste 30 Norte 3 996.7 -1.7 94
2018-01-07 03:00:00 7.2 16 Norte 37 Nordeste 3.9 997.9 -1.6 90
2018-01-07 02:00:00 7.1 8 Norte -- -- -- 998.1 -2.2 99
2018-01-07 01:00:00 6 9 Noroeste 15 Noroeste 1.4 998.4 -2.5 100
2018-01-07 00:00:00 5.2 3 Oeste 11 Noroeste 1.4 999.5 -1.6 100
2018-01-06 23:00:00 4.7 5 Noroeste 8 Sudeste 1.8 1000.3 -1.2 100
2018-01-06 22:00:00 4.7 2 Sudeste 8 Este 1.8 1000.9 -0.4 100
2018-01-06 21:00:00 4.6 2 Este 5 Este 1 1001.1 -0.1 99
2018-01-06 20:00:00 4.6 0 Calma 5 Este 1.2 1001.5 0.7 98
2018-01-06 19:00:00 4.6 2 Este 8 Este 1.4 1001.3 0.9 98
2018-01-06 18:00:00 4.8 0 Calma 13 Sudeste 1.8 1001.2 1.3 97
2018-01-06 17:00:00 5 8 Sudeste -- -- -- 1000.8 0.8 96
2018-01-06 16:00:00 5.8 11 Sudeste 22 Este -- 1000.4 -0.2 96
2018-01-06 15:00:00 7.1 0 Calma 4 Norte -- 999.9 -1 98
2018-01-06 14:00:00 6.9 0 Calma 4 Sudoeste -- 1000 -0.9 98
2018-01-06 13:00:00 6.9 3 Sudeste 15 Este -- 1000.6 0.2 98
2018-01-06 12:00:00 7.1 0 Calma 5 Sur -- 1000.9 0.4 98
2018-01-06 11:00:00 6.8 2 Sur 5 Sur -- 1000.9 0.7 99
2018-01-06 10:00:00 6.6 3 Este 5 Nordeste -- 1000.4 0.3 100
2018-01-06 09:00:00 6.7 3 Sudeste 5 Este -- 1000.5 0.2 99
2018-01-06 08:00:00 6.6 3 Sur 11 Sudeste -- 1000.2 -0.4 99
2018-01-06 07:00:00 6.8 5 Sudeste 13 Sur -- 1000.1 -0.9 98
2018-01-06 06:00:00 6.9 0 Calma 4 Sudeste -- 1000.3 -1.2 97
2018-01-06 05:00:00 7 0 Calma 11 Sudeste -- 1000.6 -1.2 97
2018-01-06 04:00:00 7.3 4 Sudeste 13 Oeste -- 1001 -1.1 93
2018-01-06 03:00:00 7.6 5 Oeste 18 Oeste -- 1001.5 -1.1 96
2018-01-06 02:00:00 8.1 9 Noroeste 21 Norte -- 1001.8 -1 99
2018-01-06 01:00:00 8.3 5 Sudeste 8 Sudeste -- 1002.1 -0.8 98
2018-01-06 00:00:00 8.4 0 Calma 8 Oeste -- 1002.6 -0.4 94
2018-01-05 23:00:00 8.6 0 Calma 5 Oeste -- 1002.8 -0.3 94
2018-01-05 22:00:00 8.9 0 Calma 5 Oeste -- 1002.9 -0.6 94
2018-01-05 21:00:00 9.1 2 Oeste 5 Oeste -- 1003 -0.1 95
2018-01-05 20:00:00 9.4 0 Calma 17 Noroeste -- 1003.1 0.2 93
2018-01-05 19:00:00 9.6 15 Noroeste 30 Noroeste -- 1003.5 0.5 94
2018-01-05 18:00:00 10.5 9 Noroeste 30 Noroeste -- 1003.1 -0.1 96
2018-01-05 17:00:00 11.1 8 Nordeste 30 Norte -- 1002.9 -0.6 94
2018-01-05 16:00:00 11.4 6 Este 11 Este -- 1003 -1.2 92
2018-01-05 15:00:00 11.2 0 Calma 8 Oeste -- 1003.2 -1.9 92
2018-01-05 14:00:00 10.9 3 Sudeste 11 Sudeste -- 1003.5 -2.4 97
2018-01-05 13:00:00 10.9 5 Sudeste 15 Este -- 1004.2 -2 98
2018-01-05 12:00:00 11 5 Este 9 Este -- 1005.1 -0.2 98
2018-01-05 11:00:00 10.5 0 Calma 26 Noroeste -- 1005.9 1.6 98
2018-01-05 10:00:00 10.5 19 Noroeste 48 Noroeste -- 1006.2 2.9 97
2018-01-05 09:00:00 13.4 28 Noroeste 42 Noroeste -- 1005.3 2.5 86
2018-01-05 08:00:00 16.4 31 Oeste 63 Sudoeste -- 1004.3 0.6 53
2018-01-05 07:00:00 16.6 35 Sudoeste 67 Sudoeste -- 1003.3 -1.4 51
2018-01-05 06:00:00 16.7 24 Sudoeste 71 Sudoeste -- 1002.8 -2.8 49
2018-01-05 05:00:00 16.6 27 Sur 55 Sur -- 1003.7 -3.3 52
2018-01-05 04:00:00 16.6 21 Sur 54 Sudoeste -- 1004.7 -3.5 52
2018-01-05 03:00:00 17.1 29 Sur 63 Sudoeste -- 1005.6 -3.7 50
2018-01-05 02:00:00 17.6 30 Sudoeste 61 Sudoeste -- 1007 -2.6 48
2018-01-05 01:00:00 17.8 22 Sur 52 Sudoeste -- 1008.2 -2.2 50
2018-01-05 00:00:00 18 23 Sudoeste 50 Sudoeste -- 1009.3 -1.5 49
2018-01-04 23:00:00 18.4 30 Sudoeste 54 Oeste -- 1009.6 -1.7 47
2018-01-04 22:00:00 18.8 27 Sudoeste 58 Sudoeste -- 1010.4 -1.9 46
2018-01-04 21:00:00 18.9 27 Sudoeste 50 Sudoeste -- 1010.8 -1.8 47
2018-01-04 20:00:00 18.7 19 Sudoeste 39 Sudoeste -- 1011.3 -1.9 49
2018-01-04 19:00:00 15.3 4 Oeste 21 Sudoeste -- 1012.3 -1 68
2018-01-04 18:00:00 16 0 Calma 8 Norte -- 1012.6 -1.4 72
2018-01-04 17:00:00 18.5 3 Noroeste 11 Oeste -- 1013.2 -2 58
2018-01-04 16:00:00 19.3 2 Oeste 17 Noroeste -- 1013.3 -3 59
2018-01-04 15:00:00 20.8 12 Sudoeste 28 Sudoeste -- 1014 -3.2 45
2018-01-04 14:00:00 20.6 18 Sudoeste 37 Sudoeste 0 1015.2 -2.3 47
2018-01-04 13:00:00 19.3 18 Sudoeste 35 Oeste 0 1016.3 -1.4 52
2018-01-04 12:00:00 19.1 16 Sudoeste 32 Sudoeste 0 1017.2 -1 54
2018-01-04 11:00:00 16.6 6 Sudeste 15 Este 0.2 1017.5 -0.9 81
2018-01-04 10:00:00 13 10 Este 15 Este 0 1017.7 -0.8 96
2018-01-04 09:00:00 12.1 5 Este 21 Este 0 1018.2 0 96
2018-01-04 08:00:00 12.7 6 Este 11 Este 0 1018.4 0.2 95
2018-01-04 07:00:00 12.9 2 Este 11 Este 0 1018.5 -0.5 90
2018-01-04 06:00:00 12.4 0 Calma 13 Este 0 1018.2 -1.1 91
2018-01-04 05:00:00 13.2 4 Este 13 Sudeste 0 1018.2 -1.8 90
2018-01-04 04:00:00 14 7 Este 15 Este 0 1019 -1.1 97
2018-01-04 03:00:00 13.3 9 Este 17 Este 0 1019.3 -1.2 100
2018-01-04 02:00:00 13.1 4 Este 11 Nordeste 0 1020 -0.5 100
2018-01-04 01:00:00 13 3 Este 8 Nordeste 0 1020.1 -0.9 100
2018-01-04 00:00:00 12.4 6 Sudeste 11 Este 0 1020.5 -0.9 100
2018-01-03 23:00:00 12.8 6 Este 17 Este 0 1020.5 -1.4 100
2018-01-03 22:00:00 13 5 Este 13 Este 0 1021 -1 100
2018-01-03 21:00:00 14.1 6 Este 17 Este 0 1021.4 -0.1 100
2018-01-03 20:00:00 14.6 8 Este 13 Este 0 1021.9 0.2 99
2018-01-03 19:00:00 15 2 Nordeste 15 Nordeste 0.1 1022 -0.4 99
2018-01-03 18:00:00 15.2 6 Sudeste 15 Norte 0 1021.5 -1 97
2018-01-03 17:00:00 15.8 0 Calma 17 Noroeste 0.3 1021.7 -1 94
2018-01-03 16:00:00 16.1 5 Noroeste 11 Noroeste 0.2 1022.4 -1.1 94
2018-01-03 15:00:00 16.1 3 Este 5 Este 0.2 1022.5 -1.4 94
2018-01-03 14:00:00 16.5 0 Calma 13 Norte 0 1022.7 -0.3 89
2018-01-03 13:00:00 17.2 10 Noroeste 22 Noroeste 0 1023.5 1 84
2018-01-03 12:00:00 18 0 Calma 17 Nordeste 0 1023.9 1.5 78
2018-01-03 11:00:00 16.9 5 Este 15 Nordeste 0 1023 1.2 83
2018-01-03 10:00:00 15.3 3 Nordeste 11 Noroeste 0 1022.5 1.6 85
2018-01-03 09:00:00 16.8 5 Oeste 21 Oeste 0 1022.4 1.7 78
2018-01-03 08:00:00 18 12 Noroeste 26 Oeste 0 1021.8 1.2 68
2018-01-03 07:00:00 18.3 10 Oeste 28 Sudoeste 0 1020.9 0.5 65
2018-01-03 06:00:00 18.5 15 Sudoeste 30 Oeste 0 1020.7 0.3 63
2018-01-03 05:00:00 18.3 12 Sudoeste 26 Sudoeste 0 1020.6 0 64
2018-01-03 04:00:00 14.9 2 Nordeste 15 Este 0 1020.4 -0.3 79
2018-01-03 03:00:00 16.2 2 Sudeste 15 Este 0 1020.4 -0.6 72
2018-01-03 02:00:00 15.9 5 Este 15 Este 0 1020.6 -0.5 75
2018-01-03 01:00:00 14.4 5 Este 9 Este 0 1020.7 -0.6 85
2018-01-03 00:00:00 12.8 5 Este 13 Este 0 1021 -0.7 94
2018-01-02 23:00:00 13.6 0 Calma 11 Nordeste 0 1021.1 -0.8 90
2018-01-02 22:00:00 12.8 8 Este 17 Este 0 1021.3 -0.6 97
2018-01-02 21:00:00 13.4 6 Este 15 Este 0 1021.7 0.2 96
2018-01-02 20:00:00 14.1 3 Este 21 Este 0 1021.9 1.1 93
2018-01-02 19:00:00 14.6 5 Este 13 Este 0 1021.9 1.7 89
2018-01-02 18:00:00 15.5 0 Calma 11 Este 0 1021.5 1.2 82
2018-01-02 17:00:00 16.4 3 Sudeste 17 Sudeste 0 1020.8 -0.9 74
2018-01-02 16:00:00 16.1 6 Este 30 Sudoeste 0 1020.2 -2.2 78
2018-01-02 15:00:00 14.9 8 Sudoeste 28 Sur 0 1020.3 -2.5 81
2018-01-02 14:00:00 13.5 11 Sur 28 Sur 0 1021.7 -0.9 86
2018-01-02 13:00:00 12.8 9 Sudoeste 28 Sudoeste 0.2 1022.4 0.4 90
2018-01-02 12:00:00 12.4 8 Sur 30 Sudoeste 3 1022.8 1.8 91
2018-01-02 11:00:00 12.5 13 Sudoeste 35 Oeste 1.3 1022.6 1.7 87
2018-01-02 10:00:00 12.7 10 Sudoeste 28 Sudoeste 0.9 1022 1.2 84
2018-01-02 09:00:00 12.2 0 Calma 26 Sudoeste 0 1021 -0.2 84
2018-01-02 08:00:00 12.5 14 Sudoeste 30 Sudoeste 0 1020.9 -- 81
2018-01-02 07:00:00 12.2 14 Sur 22 Sur 0.2 1020.8 -0.9 89
2018-01-02 06:00:00 11.2 0 Calma 13 Este 0 1021.2 -1.6 96
2018-01-02 05:00:00 -- -- -- -- -- -- -- -- --
2018-01-02 04:00:00 10.8 4 Sudeste 11 Sudeste 0 1021.7 -1.3 99
2018-01-02 03:00:00 11.3 3 Sudoeste 11 Oeste 3.1 1022.8 -0.4 99
2018-01-02 02:00:00 11.3 2 Sudeste 9 Sudeste 0.6 1022.8 -0.4 99
2018-01-02 01:00:00 11.5 0 Calma 13 Sudeste 0.9 1023 0.1 99
2018-01-02 00:00:00 11.7 2 Nordeste 17 Oeste 0.2 1023.2 0.7 97
2018-01-01 23:00:00 11.7 11 Oeste 33 Noroeste 0.2 1023.2 1.6 95
2018-01-01 22:00:00 12.1 15 Oeste 48 Noroeste 0.4 1022.9 2.1 93
2018-01-01 21:00:00 11.7 22 Oeste 37 Oeste 1.2 1022.5 2.7 97
2018-01-01 20:00:00 12 26 Noroeste 58 Noroeste 1.7 1021.6 2.4 97
2018-01-01 19:00:00 12.3 36 Noroeste 76 Noroeste 1.4 1020.8 2.4 89
2018-01-01 18:00:00 13.8 39 Noroeste 76 Noroeste 1.4 1019.8 3.7 86
2018-01-01 17:00:00 11.1 3 Noroeste 22 Oeste 1.7 1019.2 3.7 93
2018-01-01 16:00:00 11.7 14 Norte 39 Oeste 3.4 1018.4 1.9 84
2018-01-01 15:00:00 13.8 29 Sudoeste 78 Sudoeste 0.2 1016.1 -1.1 62
2018-01-01 14:00:00 15.7 37 Sudoeste 76 Oeste 0 1015.5 -2.3 47
2018-01-01 13:00:00 14.5 36 Sudoeste 76 Sudoeste 0 1016.5 -2.2 49
2018-01-01 12:00:00 14.2 33 Sudoeste 63 Oeste 0 1017.2 -2.1 47
2018-01-01 11:00:00 13.3 36 Sudoeste 72 Sudoeste 0 1017.8 -2.6 48
2018-01-01 10:00:00 12.4 33 Sudoeste 59 Sudoeste 0 1018.7 -2.5 47
2018-01-01 09:00:00 11.8 30 Sudoeste 59 Sudoeste 0 1019.3 -2.2 48
2018-01-01 08:00:00 10.2 16 Sur 32 Sudoeste 0 1020.4 -1.5 53
2018-01-01 07:00:00 9.8 8 Sur 26 Sudoeste 0 1021.2 -1 52
2018-01-01 06:00:00 8.4 5 Sudeste 21 Sur 0 1021.5 -0.2 56
2018-01-01 05:00:00 8.8 9 Este 32 Sur 0 1021.9 0.3 56
2018-01-01 04:00:00 10.5 18 Sudoeste 32 Sudoeste 0 1022.2 0.8 48
2018-01-01 03:00:00 12.2 12 Oeste 33 Noroeste 0 1021.7 0.7 49
2018-01-01 02:00:00 12.5 14 Oeste 41 Oeste 0 1021.6 1.3 46
2018-01-01 01:00:00 12.7 22 Oeste 48 Noroeste 0 1021.4 1.8 43
2018-01-01 00:00:00 12.5 17 Oeste 33 Noroeste 0 1021 1.9 42
2017-12-31 23:00:00 12 18 Oeste 32 Oeste 0 1020.3 1.9 47
2017-12-31 22:00:00 12.1 20 Oeste 39 Oeste 0 1019.6 2.8 49
2017-12-31 21:00:00 12 11 Oeste 42 Oeste 0 1019.1 3.5 52
2017-12-31 20:00:00 12 18 Oeste 37 Oeste 0 1018.4 3.5 54
2017-12-31 19:00:00 11.5 11 Oeste 37 Oeste 0 1016.8 2.4 67
2017-12-31 18:00:00 10.8 16 Oeste 32 Oeste 0.2 1015.6 2.4 72
2017-12-31 17:00:00 10.3 15 Oeste 55 Noroeste 0.5 1014.9 4.9 77
2017-12-31 16:00:00 11.2 26 Noroeste 52 Noroeste 1.4 1014.4 4.6 81
2017-12-31 15:00:00 11.7 35 Noroeste 78 Noroeste 2.1 1013.2 2.8 92
2017-12-31 14:00:00 18.8 38 Sudoeste 67 Sudoeste 0 1010 -0.3 44
2017-12-31 13:00:00 18.3 31 Sudoeste 80 Sudoeste 0 1009.8 -1.1 42
2017-12-31 12:00:00 17.9 26 Sudoeste 52 Sudoeste 0 1010.4 -0.9 43
2017-12-31 11:00:00 17.7 21 Sur 61 Sudoeste 0 1010.3 -1.8 42
2017-12-31 10:00:00 17 26 Sur 48 Sur 0 1010.9 -0.9 46
2017-12-31 09:00:00 16.9 26 Sur 61 Sudoeste 0 1011.3 -1.6 47
2017-12-31 08:00:00 16.8 26 Sudoeste 58 Sur 0 1012.1 -0.8 45
2017-12-31 07:00:00 16.6 30 Sur 67 Sur 0 1011.8 -1.7 47
2017-12-31 06:00:00 16.9 27 Sudoeste 52 Sudoeste 0 1012.9 -1.8 45
2017-12-31 05:00:00 17 29 Sudoeste 59 Sudoeste 0 1012.9 -2.4 45
2017-12-31 04:00:00 16.9 28 Sudoeste 50 Sur 0 1013.5 -2.5 47
2017-12-31 03:00:00 16.2 4 Sudeste 33 Sur 0 1014.7 -1.7 51
2017-12-31 02:00:00 15.9 8 Sudoeste 22 Sudoeste 0 1015.3 -1.3 52
2017-12-31 01:00:00 16 9 Sur 26 Sur 0 1016 -0.7 52